sensor_id;sensor_type;location;lat;lon;timestamp;P1;durP1;ratioP1;P2;durP2;ratioP2
74593;SDS011;63097;51.872;4.460;2023-03-01T00:01:24;13.32;;;9.18;;
74593;SDS011;63097;51.872;4.460;2023-03-01T00:03:51;13.85;;;9.55;;
74593;SDS011;63097;51.872;4.460;2023-03-01T00:06:17;17.58;;;10.27;;
74593;SDS011;63097;51.872;4.460;2023-03-01T00:08:43;15.23;;;9.73;;
74593;SDS011;63097;51.872;4.460;2023-03-01T00:13:37;17.13;;;9.23;;
74593;SDS011;63097;51.872;4.460;2023-03-01T00:16:03;15.45;;;9.75;;
74593;SDS011;63097;51.872;4.460;2023-03-01T00:18:33;17.38;;;10.07;;
74593;SDS011;63097;51.872;4.460;2023-03-01T00:20:59;20.02;;;10.13;;
74593;SDS011;63097;51.872;4.460;2023-03-01T00:23:25;16.70;;;9.95;;
74593;SDS011;63097;51.872;4.460;2023-03-01T00:25:51;14.88;;;9.48;;
74593;SDS011;63097;51.872;4.460;2023-03-01T00:28:17;16.52;;;9.30;;
74593;SDS011;63097;51.872;4.460;2023-03-01T00:30:42;18.95;;;10.02;;
74593;SDS011;63097;51.872;4.460;2023-03-01T00:33:08;14.63;;;9.07;;
74593;SDS011;63097;51.872;4.460;2023-03-01T00:35:33;18.63;;;9.95;;
74593;SDS011;63097;51.872;4.460;2023-03-01T00:37:59;15.48;;;9.60;;
74593;SDS011;63097;51.872;4.460;2023-03-01T00:40:25;12.73;;;9.43;;
74593;SDS011;63097;51.872;4.460;2023-03-01T00:42:52;15.63;;;9.55;;
74593;SDS011;63097;51.872;4.460;2023-03-01T00:45:17;13.10;;;9.10;;
74593;SDS011;63097;51.872;4.460;2023-03-01T00:47:42;18.05;;;9.98;;
74593;SDS011;63097;51.872;4.460;2023-03-01T00:50:08;13.25;;;9.27;;
74593;SDS011;63097;51.872;4.460;2023-03-01T00:52:34;17.05;;;9.57;;
74593;SDS011;63097;51.872;4.460;2023-03-01T00:55:00;20.02;;;10.18;;
74593;SDS011;63097;51.872;4.460;2023-03-01T00:57:25;15.93;;;9.73;;
74593;SDS011;63097;51.872;4.460;2023-03-01T00:59:50;16.05;;;9.65;;
74593;SDS011;63097;51.872;4.460;2023-03-01T01:02:16;15.52;;;9.73;;
74593;SDS011;63097;51.872;4.460;2023-03-01T01:04:41;22.02;;;8.88;;
74593;SDS011;63097;51.872;4.460;2023-03-01T01:07:06;14.73;;;8.82;;
74593;SDS011;63097;51.872;4.460;2023-03-01T01:09:31;17.80;;;9.43;;
74593;SDS011;63097;51.872;4.460;2023-03-01T01:11:57;14.38;;;9.25;;
74593;SDS011;63097;51.872;4.460;2023-03-01T01:14:22;17.08;;;8.57;;
74593;SDS011;63097;51.872;4.460;2023-03-01T01:16:47;14.80;;;8.73;;
74593;SDS011;63097;51.872;4.460;2023-03-01T01:19:13;13.18;;;9.25;;
74593;SDS011;63097;51.872;4.460;2023-03-01T01:21:39;16.02;;;9.52;;
74593;SDS011;63097;51.872;4.460;2023-03-01T01:24:05;12.70;;;8.82;;
74593;SDS011;63097;51.872;4.460;2023-03-01T01:26:31;15.50;;;9.60;;
74593;SDS011;63097;51.872;4.460;2023-03-01T01:28:59;16.70;;;9.20;;
74593;SDS011;63097;51.872;4.460;2023-03-01T01:31:26;12.05;;;8.55;;
74593;SDS011;63097;51.872;4.460;2023-03-01T01:33:52;18.38;;;9.40;;
74593;SDS011;63097;51.872;4.460;2023-03-01T01:36:18;17.83;;;9.48;;
74593;SDS011;63097;51.872;4.460;2023-03-01T01:38:44;16.52;;;9.60;;
74593;SDS011;63097;51.872;4.460;2023-03-01T01:41:10;17.20;;;10.18;;
74593;SDS011;63097;51.872;4.460;2023-03-01T01:43:38;16.15;;;9.73;;
74593;SDS011;63097;51.872;4.460;2023-03-01T01:46:25;13.60;;;9.10;;
74593;SDS011;63097;51.872;4.460;2023-03-01T01:48:59;17.63;;;9.20;;
74593;SDS011;63097;51.872;4.460;2023-03-01T01:51:28;17.23;;;9.52;;
74593;SDS011;63097;51.872;4.460;2023-03-01T01:53:58;16.50;;;9.80;;
74593;SDS011;63097;51.872;4.460;2023-03-01T01:56:25;16.45;;;9.55;;
74593;SDS011;63097;51.872;4.460;2023-03-01T01:58:53;16.38;;;9.77;;
74593;SDS011;63097;51.872;4.460;2023-03-01T02:01:19;18.10;;;9.70;;
74593;SDS011;63097;51.872;4.460;2023-03-01T02:03:45;18.88;;;10.38;;
74593;SDS011;63097;51.872;4.460;2023-03-01T02:09:06;19.35;;;11.82;;
74593;SDS011;63097;51.872;4.460;2023-03-01T02:11:36;19.67;;;11.18;;
74593;SDS011;63097;51.872;4.460;2023-03-01T02:14:01;21.60;;;11.95;;
74593;SDS011;63097;51.872;4.460;2023-03-01T02:16:27;20.88;;;11.95;;
74593;SDS011;63097;51.872;4.460;2023-03-01T02:18:52;19.58;;;12.05;;
74593;SDS011;63097;51.872;4.460;2023-03-01T02:24:05;19.83;;;11.95;;
74593;SDS011;63097;51.872;4.460;2023-03-01T02:26:45;19.90;;;11.70;;
74593;SDS011;63097;51.872;4.460;2023-03-01T02:29:15;21.70;;;11.40;;
74593;SDS011;63097;51.872;4.460;2023-03-01T02:31:40;20.92;;;11.75;;
74593;SDS011;63097;51.872;4.460;2023-03-01T02:34:06;19.10;;;11.45;;
74593;SDS011;63097;51.872;4.460;2023-03-01T02:36:35;19.80;;;11.82;;
74593;SDS011;63097;51.872;4.460;2023-03-01T02:39:13;20.50;;;11.55;;
74593;SDS011;63097;51.872;4.460;2023-03-01T02:41:45;19.83;;;11.02;;
74593;SDS011;63097;51.872;4.460;2023-03-01T02:44:14;26.10;;;11.73;;
74593;SDS011;63097;51.872;4.460;2023-03-01T02:46:44;17.80;;;10.88;;
74593;SDS011;63097;51.872;4.460;2023-03-01T02:49:23;21.20;;;12.02;;
74593;SDS011;63097;51.872;4.460;2023-03-01T02:52:00;22.63;;;11.95;;
74593;SDS011;63097;51.872;4.460;2023-03-01T02:57:23;20.25;;;11.82;;
74593;SDS011;63097;51.872;4.460;2023-03-01T02:59:50;23.55;;;12.23;;
74593;SDS011;63097;51.872;4.460;2023-03-01T03:02:24;19.02;;;11.73;;
74593;SDS011;63097;51.872;4.460;2023-03-01T03:04:51;20.52;;;12.40;;
74593;SDS011;63097;51.872;4.460;2023-03-01T03:07:17;22.13;;;11.98;;
74593;SDS011;63097;51.872;4.460;2023-03-01T03:09:42;21.73;;;12.25;;
74593;SDS011;63097;51.872;4.460;2023-03-01T03:12:07;20.33;;;11.73;;
74593;SDS011;63097;51.872;4.460;2023-03-01T03:14:33;18.13;;;11.35;;
74593;SDS011;63097;51.872;4.460;2023-03-01T03:16:58;19.23;;;10.95;;
74593;SDS011;63097;51.872;4.460;2023-03-01T03:19:23;21.58;;;11.38;;
74593;SDS011;63097;51.872;4.460;2023-03-01T03:21:48;21.10;;;12.00;;
74593;SDS011;63097;51.872;4.460;2023-03-01T03:24:14;18.17;;;12.45;;
74593;SDS011;63097;51.872;4.460;2023-03-01T03:26:39;22.27;;;11.65;;
74593;SDS011;63097;51.872;4.460;2023-03-01T03:29:04;27.58;;;11.52;;
74593;SDS011;63097;51.872;4.460;2023-03-01T03:31:30;22.33;;;12.23;;
74593;SDS011;63097;51.872;4.460;2023-03-01T03:33:55;18.58;;;11.52;;
74593;SDS011;63097;51.872;4.460;2023-03-01T03:36:21;21.27;;;11.55;;
74593;SDS011;63097;51.872;4.460;2023-03-01T03:38:49;23.92;;;11.88;;
74593;SDS011;63097;51.872;4.460;2023-03-01T03:41:15;23.20;;;11.70;;
74593;SDS011;63097;51.872;4.460;2023-03-01T03:43:40;21.75;;;11.32;;
74593;SDS011;63097;51.872;4.460;2023-03-01T03:46:06;20.73;;;11.43;;
74593;SDS011;63097;51.872;4.460;2023-03-01T03:48:42;21.65;;;12.25;;
74593;SDS011;63097;51.872;4.460;2023-03-01T03:51:12;21.67;;;11.20;;
74593;SDS011;63097;51.872;4.460;2023-03-01T03:53:39;21.52;;;12.68;;
74593;SDS011;63097;51.872;4.460;2023-03-01T03:56:05;20.48;;;11.90;;
74593;SDS011;63097;51.872;4.460;2023-03-01T03:58:31;18.80;;;10.77;;
74593;SDS011;63097;51.872;4.460;2023-03-01T04:00:56;16.70;;;10.10;;
74593;SDS011;63097;51.872;4.460;2023-03-01T04:03:22;21.45;;;11.02;;
74593;SDS011;63097;51.872;4.460;2023-03-01T04:05:49;17.02;;;10.77;;
74593;SDS011;63097;51.872;4.460;2023-03-01T04:08:15;18.33;;;10.35;;
74593;SDS011;63097;51.872;4.460;2023-03-01T04:10:44;21.02;;;10.18;;
74593;SDS011;63097;51.872;4.460;2023-03-01T04:13:12;17.90;;;10.65;;
74593;SDS011;63097;51.872;4.460;2023-03-01T04:15:39;17.83;;;10.23;;
74593;SDS011;63097;51.872;4.460;2023-03-01T04:18:05;16.17;;;9.85;;
74593;SDS011;63097;51.872;4.460;2023-03-01T04:20:32;14.90;;;9.07;;
74593;SDS011;63097;51.872;4.460;2023-03-01T04:23:06;16.95;;;10.10;;
74593;SDS011;63097;51.872;4.460;2023-03-01T04:25:40;18.40;;;9.88;;
74593;SDS011;63097;51.872;4.460;2023-03-01T04:28:07;17.83;;;9.88;;
74593;SDS011;63097;51.872;4.460;2023-03-01T04:30:33;15.20;;;9.25;;
74593;SDS011;63097;51.872;4.460;2023-03-01T04:32:58;17.52;;;9.65;;
74593;SDS011;63097;51.872;4.460;2023-03-01T04:35:23;14.27;;;9.55;;
74593;SDS011;63097;51.872;4.460;2023-03-01T04:37:49;17.88;;;10.45;;
74593;SDS011;63097;51.872;4.460;2023-03-01T04:40:14;20.52;;;10.13;;
74593;SDS011;63097;51.872;4.460;2023-03-01T04:42:39;17.42;;;9.85;;
74593;SDS011;63097;51.872;4.460;2023-03-01T04:45:05;16.80;;;10.18;;
74593;SDS011;63097;51.872;4.460;2023-03-01T04:47:31;16.17;;;10.00;;
74593;SDS011;63097;51.872;4.460;2023-03-01T04:49:56;18.35;;;9.75;;
74593;SDS011;63097;51.872;4.460;2023-03-01T04:52:21;18.73;;;9.30;;
74593;SDS011;63097;51.872;4.460;2023-03-01T04:54:47;18.58;;;10.35;;
74593;SDS011;63097;51.872;4.460;2023-03-01T04:57:12;17.08;;;9.75;;
74593;SDS011;63097;51.872;4.460;2023-03-01T04:59:37;16.38;;;9.38;;
74593;SDS011;63097;51.872;4.460;2023-03-01T05:02:02;18.02;;;9.65;;
74593;SDS011;63097;51.872;4.460;2023-03-01T05:04:28;20.08;;;10.15;;
74593;SDS011;63097;51.872;4.460;2023-03-01T05:06:53;17.88;;;9.25;;
74593;SDS011;63097;51.872;4.460;2023-03-01T05:09:18;21.77;;;9.27;;
74593;SDS011;63097;51.872;4.460;2023-03-01T05:11:44;18.30;;;9.73;;
74593;SDS011;63097;51.872;4.460;2023-03-01T05:14:10;16.30;;;9.50;;
74593;SDS011;63097;51.872;4.460;2023-03-01T05:16:35;17.67;;;10.05;;
74593;SDS011;63097;51.872;4.460;2023-03-01T05:19:01;22.83;;;10.65;;
74593;SDS011;63097;51.872;4.460;2023-03-01T05:21:28;15.43;;;10.23;;
74593;SDS011;63097;51.872;4.460;2023-03-01T05:23:53;18.10;;;9.40;;
74593;SDS011;63097;51.872;4.460;2023-03-01T05:26:19;18.95;;;9.95;;
74593;SDS011;63097;51.872;4.460;2023-03-01T05:28:45;16.70;;;10.13;;
74593;SDS011;63097;51.872;4.460;2023-03-01T05:31:10;16.50;;;10.15;;
74593;SDS011;63097;51.872;4.460;2023-03-01T05:33:36;15.38;;;9.85;;
74593;SDS011;63097;51.872;4.460;2023-03-01T05:36:03;18.23;;;10.80;;
74593;SDS011;63097;51.872;4.460;2023-03-01T05:38:29;15.75;;;9.95;;
74593;SDS011;63097;51.872;4.460;2023-03-01T05:40:54;17.60;;;10.38;;
74593;SDS011;63097;51.872;4.460;2023-03-01T05:43:19;21.55;;;10.88;;
74593;SDS011;63097;51.872;4.460;2023-03-01T05:45:45;19.10;;;10.13;;
74593;SDS011;63097;51.872;4.460;2023-03-01T05:48:11;20.30;;;11.20;;
74593;SDS011;63097;51.872;4.460;2023-03-01T05:50:38;18.33;;;10.57;;
74593;SDS011;63097;51.872;4.460;2023-03-01T05:53:18;18.52;;;9.98;;
74593;SDS011;63097;51.872;4.460;2023-03-01T05:55:45;17.05;;;9.55;;
74593;SDS011;63097;51.872;4.460;2023-03-01T05:58:11;18.48;;;10.70;;
74593;SDS011;63097;51.872;4.460;2023-03-01T06:00:38;18.08;;;10.20;;
74593;SDS011;63097;51.872;4.460;2023-03-01T06:03:03;20.35;;;10.70;;
74593;SDS011;63097;51.872;4.460;2023-03-01T06:05:29;20.58;;;9.55;;
74593;SDS011;63097;51.872;4.460;2023-03-01T06:07:54;22.83;;;9.30;;
74593;SDS011;63097;51.872;4.460;2023-03-01T06:10:21;21.20;;;10.40;;
74593;SDS011;63097;51.872;4.460;2023-03-01T06:12:47;21.40;;;10.43;;
74593;SDS011;63097;51.872;4.460;2023-03-01T06:15:13;22.23;;;9.95;;
74593;SDS011;63097;51.872;4.460;2023-03-01T06:17:41;17.13;;;10.15;;
74593;SDS011;63097;51.872;4.460;2023-03-01T06:20:11;17.17;;;9.30;;
74593;SDS011;63097;51.872;4.460;2023-03-01T06:22:45;14.75;;;9.20;;
74593;SDS011;63097;51.872;4.460;2023-03-01T06:25:12;15.55;;;10.00;;
74593;SDS011;63097;51.872;4.460;2023-03-01T06:27:38;23.33;;;10.70;;
74593;SDS011;63097;51.872;4.460;2023-03-01T06:30:04;16.33;;;9.82;;
74593;SDS011;63097;51.872;4.460;2023-03-01T06:32:30;18.80;;;9.95;;
74593;SDS011;63097;51.872;4.460;2023-03-01T06:34:55;15.40;;;9.68;;
74593;SDS011;63097;51.872;4.460;2023-03-01T06:37:21;18.27;;;9.63;;
74593;SDS011;63097;51.872;4.460;2023-03-01T06:39:46;21.00;;;9.50;;
74593;SDS011;63097;51.872;4.460;2023-03-01T06:42:11;21.25;;;10.15;;
74593;SDS011;63097;51.872;4.460;2023-03-01T06:44:37;17.00;;;9.77;;
74593;SDS011;63097;51.872;4.460;2023-03-01T06:47:02;14.50;;;9.45;;
74593;SDS011;63097;51.872;4.460;2023-03-01T06:49:28;17.73;;;9.52;;
74593;SDS011;63097;51.872;4.460;2023-03-01T06:51:53;17.15;;;9.52;;
74593;SDS011;63097;51.872;4.460;2023-03-01T06:54:19;16.25;;;9.48;;
74593;SDS011;63097;51.872;4.460;2023-03-01T06:56:46;15.77;;;9.55;;
74593;SDS011;63097;51.872;4.460;2023-03-01T06:59:12;19.65;;;9.82;;
74593;SDS011;63097;51.872;4.460;2023-03-01T07:01:37;14.25;;;9.35;;
74593;SDS011;63097;51.872;4.460;2023-03-01T07:04:02;17.10;;;9.93;;
74593;SDS011;63097;51.872;4.460;2023-03-01T07:06:28;18.90;;;9.95;;
74593;SDS011;63097;51.872;4.460;2023-03-01T07:08:53;17.80;;;9.23;;
74593;SDS011;63097;51.872;4.460;2023-03-01T07:11:18;19.40;;;9.32;;
74593;SDS011;63097;51.872;4.460;2023-03-01T07:13:43;16.98;;;9.63;;
74593;SDS011;63097;51.872;4.460;2023-03-01T07:16:09;18.92;;;10.15;;
74593;SDS011;63097;51.872;4.460;2023-03-01T07:18:34;18.80;;;9.88;;
74593;SDS011;63097;51.872;4.460;2023-03-01T07:21:09;18.42;;;10.55;;
74593;SDS011;63097;51.872;4.460;2023-03-01T07:23:36;19.65;;;9.85;;
74593;SDS011;63097;51.872;4.460;2023-03-01T07:26:02;23.30;;;9.95;;
74593;SDS011;63097;51.872;4.460;2023-03-01T07:28:28;16.27;;;9.38;;
74593;SDS011;63097;51.872;4.460;2023-03-01T07:30:53;18.55;;;10.52;;
74593;SDS011;63097;51.872;4.460;2023-03-01T07:33:19;21.23;;;9.73;;
74593;SDS011;63097;51.872;4.460;2023-03-01T07:35:45;19.33;;;9.88;;
74593;SDS011;63097;51.872;4.460;2023-03-01T07:38:10;16.38;;;9.80;;
74593;SDS011;63097;51.872;4.460;2023-03-01T07:40:36;16.33;;;9.15;;
74593;SDS011;63097;51.872;4.460;2023-03-01T07:43:01;13.43;;;7.90;;
74593;SDS011;63097;51.872;4.460;2023-03-01T07:45:29;20.60;;;7.95;;
74593;SDS011;63097;51.872;4.460;2023-03-01T07:47:55;11.65;;;7.45;;
74593;SDS011;63097;51.872;4.460;2023-03-01T07:50:21;11.52;;;6.90;;
74593;SDS011;63097;51.872;4.460;2023-03-01T07:52:48;18.25;;;7.18;;
74593;SDS011;63097;51.872;4.460;2023-03-01T07:55:14;10.93;;;6.93;;
74593;SDS011;63097;51.872;4.460;2023-03-01T07:57:40;10.23;;;6.13;;
74593;SDS011;63097;51.872;4.460;2023-03-01T08:00:06;13.02;;;6.45;;
74593;SDS011;63097;51.872;4.460;2023-03-01T08:02:32;12.55;;;6.25;;
74593;SDS011;63097;51.872;4.460;2023-03-01T08:04:58;9.30;;;5.97;;
74593;SDS011;63097;51.872;4.460;2023-03-01T08:07:23;8.05;;;5.45;;
74593;SDS011;63097;51.872;4.460;2023-03-01T08:09:48;10.50;;;6.05;;
74593;SDS011;63097;51.872;4.460;2023-03-01T08:12:14;7.30;;;5.63;;
74593;SDS011;63097;51.872;4.460;2023-03-01T08:14:39;7.45;;;5.40;;
74593;SDS011;63097;51.872;4.460;2023-03-01T08:17:04;9.20;;;5.43;;
74593;SDS011;63097;51.872;4.460;2023-03-01T08:19:30;8.25;;;5.05;;
74593;SDS011;63097;51.872;4.460;2023-03-01T08:21:55;7.32;;;5.10;;
74593;SDS011;63097;51.872;4.460;2023-03-01T08:24:20;9.15;;;5.30;;
74593;SDS011;63097;51.872;4.460;2023-03-01T08:26:46;9.48;;;6.07;;
74593;SDS011;63097;51.872;4.460;2023-03-01T08:29:11;8.00;;;5.18;;
74593;SDS011;63097;51.872;4.460;2023-03-01T08:31:38;8.68;;;5.80;;
74593;SDS011;63097;51.872;4.460;2023-03-01T08:34:06;6.72;;;4.95;;
74593;SDS011;63097;51.872;4.460;2023-03-01T08:36:41;8.45;;;4.75;;
74593;SDS011;63097;51.872;4.460;2023-03-01T08:39:08;6.80;;;4.90;;
74593;SDS011;63097;51.872;4.460;2023-03-01T08:41:35;7.28;;;4.32;;
74593;SDS011;63097;51.872;4.460;2023-03-01T08:44:00;10.88;;;4.50;;
74593;SDS011;63097;51.872;4.460;2023-03-01T08:46:27;7.35;;;4.80;;
74593;SDS011;63097;51.872;4.460;2023-03-01T08:48:53;10.43;;;5.05;;
74593;SDS011;63097;51.872;4.460;2023-03-01T08:51:19;5.25;;;4.18;;
74593;SDS011;63097;51.872;4.460;2023-03-01T08:53:45;7.55;;;4.43;;
74593;SDS011;63097;51.872;4.460;2023-03-01T08:56:11;7.78;;;4.50;;
74593;SDS011;63097;51.872;4.460;2023-03-01T08:58:37;5.03;;;4.07;;
74593;SDS011;63097;51.872;4.460;2023-03-01T09:01:06;8.93;;;4.15;;
74593;SDS011;63097;51.872;4.460;2023-03-01T09:03:33;5.15;;;3.30;;
74593;SDS011;63097;51.872;4.460;2023-03-01T09:06:01;6.53;;;4.10;;
74593;SDS011;63097;51.872;4.460;2023-03-01T09:08:28;4.93;;;3.30;;
74593;SDS011;63097;51.872;4.460;2023-03-01T09:10:54;5.18;;;3.10;;
74593;SDS011;63097;51.872;4.460;2023-03-01T09:13:19;3.88;;;2.45;;
74593;SDS011;63097;51.872;4.460;2023-03-01T09:15:44;2.72;;;2.05;;
74593;SDS011;63097;51.872;4.460;2023-03-01T09:18:10;5.18;;;3.22;;
74593;SDS011;63097;51.872;4.460;2023-03-01T09:20:35;4.03;;;2.97;;
74593;SDS011;63097;51.872;4.460;2023-03-01T09:23:00;14.45;;;3.13;;
74593;SDS011;63097;51.872;4.460;2023-03-01T09:25:26;4.28;;;2.42;;
74593;SDS011;63097;51.872;4.460;2023-03-01T09:27:51;4.05;;;2.58;;
74593;SDS011;63097;51.872;4.460;2023-03-01T09:30:17;3.83;;;2.85;;
74593;SDS011;63097;51.872;4.460;2023-03-01T09:32:43;3.90;;;2.78;;
74593;SDS011;63097;51.872;4.460;2023-03-01T09:35:08;5.45;;;2.85;;
74593;SDS011;63097;51.872;4.460;2023-03-01T09:37:34;3.85;;;2.67;;
74593;SDS011;63097;51.872;4.460;2023-03-01T09:40:00;3.78;;;2.90;;
74593;SDS011;63097;51.872;4.460;2023-03-01T09:42:25;3.60;;;3.05;;
74593;SDS011;63097;51.872;4.460;2023-03-01T09:44:54;5.40;;;3.35;;
74593;SDS011;63097;51.872;4.460;2023-03-01T09:47:22;3.63;;;3.00;;
74593;SDS011;63097;51.872;4.460;2023-03-01T09:49:56;4.80;;;2.88;;
74593;SDS011;63097;51.872;4.460;2023-03-01T09:52:30;7.53;;;3.60;;
74593;SDS011;63097;51.872;4.460;2023-03-01T09:55:01;3.53;;;2.90;;
74593;SDS011;63097;51.872;4.460;2023-03-01T09:57:57;5.25;;;2.72;;
74593;SDS011;63097;51.872;4.460;2023-03-01T10:00:30;5.00;;;2.35;;
74593;SDS011;63097;51.872;4.460;2023-03-01T10:06:18;3.28;;;2.58;;
74593;SDS011;63097;51.872;4.460;2023-03-01T10:08:56;3.65;;;2.85;;
74593;SDS011;63097;51.872;4.460;2023-03-01T10:11:26;5.25;;;2.50;;
74593;SDS011;63097;51.872;4.460;2023-03-01T10:16:59;3.08;;;2.50;;
74593;SDS011;63097;51.872;4.460;2023-03-01T10:22:13;3.83;;;2.67;;
74593;SDS011;63097;51.872;4.460;2023-03-01T10:24:42;3.75;;;2.75;;
74593;SDS011;63097;51.872;4.460;2023-03-01T10:27:11;6.00;;;2.67;;
74593;SDS011;63097;51.872;4.460;2023-03-01T10:32:48;4.23;;;2.90;;
74593;SDS011;63097;51.872;4.460;2023-03-01T10:35:17;6.90;;;2.90;;
74593;SDS011;63097;51.872;4.460;2023-03-01T10:40:31;9.82;;;2.90;;
74593;SDS011;63097;51.872;4.460;2023-03-01T10:42:58;7.93;;;3.10;;
74593;SDS011;63097;51.872;4.460;2023-03-01T10:50:43;4.05;;;2.88;;
74593;SDS011;63097;51.872;4.460;2023-03-01T10:53:20;4.07;;;2.95;;
74593;SDS011;63097;51.872;4.460;2023-03-01T10:55:48;5.53;;;3.40;;
74593;SDS011;63097;51.872;4.460;2023-03-01T11:00:58;6.15;;;3.75;;
74593;SDS011;63097;51.872;4.460;2023-03-01T11:04:03;4.57;;;2.70;;
74593;SDS011;63097;51.872;4.460;2023-03-01T11:06:31;4.22;;;3.50;;
74593;SDS011;63097;51.872;4.460;2023-03-01T11:09:01;4.00;;;3.30;;
74593;SDS011;63097;51.872;4.460;2023-03-01T11:11:45;5.50;;;3.10;;
74593;SDS011;63097;51.872;4.460;2023-03-01T11:14:26;4.95;;;4.07;;
74593;SDS011;63097;51.872;4.460;2023-03-01T11:19:41;9.07;;;3.78;;
74593;SDS011;63097;51.872;4.460;2023-03-01T11:22:10;4.88;;;3.20;;
74593;SDS011;63097;51.872;4.460;2023-03-01T11:27:17;5.22;;;3.70;;
74593;SDS011;63097;51.872;4.460;2023-03-01T11:29:48;8.82;;;3.28;;
74593;SDS011;63097;51.872;4.460;2023-03-01T11:32:20;5.95;;;3.53;;
74593;SDS011;63097;51.872;4.460;2023-03-01T11:40:10;7.28;;;3.47;;
74593;SDS011;63097;51.872;4.460;2023-03-01T11:42:52;4.30;;;3.65;;
74593;SDS011;63097;51.872;4.460;2023-03-01T11:45:23;5.43;;;3.17;;
74593;SDS011;63097;51.872;4.460;2023-03-01T11:50:48;4.05;;;3.30;;
74593;SDS011;63097;51.872;4.460;2023-03-01T11:53:19;11.05;;;3.72;;
74593;SDS011;63097;51.872;4.460;2023-03-01T12:04:26;4.55;;;3.15;;
74593;SDS011;63097;51.872;4.460;2023-03-01T12:07:10;3.85;;;3.17;;
74593;SDS011;63097;51.872;4.460;2023-03-01T12:15:18;4.07;;;3.30;;
74593;SDS011;63097;51.872;4.460;2023-03-01T12:18:02;5.07;;;3.20;;
74593;SDS011;63097;51.872;4.460;2023-03-01T12:23:33;6.35;;;3.80;;
74593;SDS011;63097;51.872;4.460;2023-03-01T12:32:12;4.30;;;2.90;;
74593;SDS011;63097;51.872;4.460;2023-03-01T12:34:51;5.88;;;3.30;;
74593;SDS011;63097;51.872;4.460;2023-03-01T12:37:56;5.50;;;2.97;;
74593;SDS011;63097;51.872;4.460;2023-03-01T12:40:43;5.32;;;3.25;;
74593;SDS011;63097;51.872;4.460;2023-03-01T12:51:36;3.75;;;2.53;;
74593;SDS011;63097;51.872;4.460;2023-03-01T12:54:16;5.60;;;3.20;;
74593;SDS011;63097;51.872;4.460;2023-03-01T12:56:50;5.03;;;3.15;;
74593;SDS011;63097;51.872;4.460;2023-03-01T12:59:21;4.18;;;2.85;;
74593;SDS011;63097;51.872;4.460;2023-03-01T13:05:00;7.70;;;3.05;;
74593;SDS011;63097;51.872;4.460;2023-03-01T13:17:52;3.03;;;2.67;;
74593;SDS011;63097;51.872;4.460;2023-03-01T13:20:19;3.15;;;2.35;;
74593;SDS011;63097;51.872;4.460;2023-03-01T13:22:48;3.80;;;2.78;;
74593;SDS011;63097;51.872;4.460;2023-03-01T13:25:26;2.65;;;2.25;;
74593;SDS011;63097;51.872;4.460;2023-03-01T13:27:51;4.88;;;2.80;;
74593;SDS011;63097;51.872;4.460;2023-03-01T13:30:55;3.42;;;2.90;;
74593;SDS011;63097;51.872;4.460;2023-03-01T13:35:52;4.90;;;3.00;;
74593;SDS011;63097;51.872;4.460;2023-03-01T13:41:11;7.18;;;3.10;;
74593;SDS011;63097;51.872;4.460;2023-03-01T13:43:38;3.63;;;3.13;;
74593;SDS011;63097;51.872;4.460;2023-03-01T13:46:11;5.07;;;2.90;;
74593;SDS011;63097;51.872;4.460;2023-03-01T13:48:40;4.03;;;2.60;;
74593;SDS011;63097;51.872;4.460;2023-03-01T13:51:07;3.47;;;3.00;;
74593;SDS011;63097;51.872;4.460;2023-03-01T13:53:45;3.50;;;2.72;;
74593;SDS011;63097;51.872;4.460;2023-03-01T13:56:13;7.70;;;2.90;;
74593;SDS011;63097;51.872;4.460;2023-03-01T14:01:36;4.13;;;2.72;;
74593;SDS011;63097;51.872;4.460;2023-03-01T14:04:02;4.50;;;2.95;;
74593;SDS011;63097;51.872;4.460;2023-03-01T14:06:43;5.63;;;2.90;;
74593;SDS011;63097;51.872;4.460;2023-03-01T14:09:10;5.82;;;3.10;;
74593;SDS011;63097;51.872;4.460;2023-03-01T14:12:41;7.30;;;3.33;;
74593;SDS011;63097;51.872;4.460;2023-03-01T14:15:08;6.30;;;2.95;;
74593;SDS011;63097;51.872;4.460;2023-03-01T14:20:28;5.35;;;3.35;;
74593;SDS011;63097;51.872;4.460;2023-03-01T14:22:58;7.32;;;3.15;;
74593;SDS011;63097;51.872;4.460;2023-03-01T14:25:31;6.03;;;2.60;;
74593;SDS011;63097;51.872;4.460;2023-03-01T14:30:27;3.47;;;2.60;;
74593;SDS011;63097;51.872;4.460;2023-03-01T14:33:02;4.45;;;2.60;;
74593;SDS011;63097;51.872;4.460;2023-03-01T14:35:31;6.55;;;2.83;;
74593;SDS011;63097;51.872;4.460;2023-03-01T14:37:57;9.98;;;2.80;;
74593;SDS011;63097;51.872;4.460;2023-03-01T14:40:33;7.05;;;2.78;;
74593;SDS011;63097;51.872;4.460;2023-03-01T14:43:04;4.30;;;2.50;;
74593;SDS011;63097;51.872;4.460;2023-03-01T14:45:35;4.30;;;2.78;;
74593;SDS011;63097;51.872;4.460;2023-03-01T14:48:02;5.28;;;3.00;;
74593;SDS011;63097;51.872;4.460;2023-03-01T14:50:31;7.57;;;2.47;;
74593;SDS011;63097;51.872;4.460;2023-03-01T14:52:59;3.00;;;2.33;;
74593;SDS011;63097;51.872;4.460;2023-03-01T14:55:29;7.05;;;2.70;;
74593;SDS011;63097;51.872;4.460;2023-03-01T15:00:34;6.80;;;2.85;;
74593;SDS011;63097;51.872;4.460;2023-03-01T15:03:06;5.30;;;2.70;;
74593;SDS011;63097;51.872;4.460;2023-03-01T15:05:36;6.55;;;2.92;;
74593;SDS011;63097;51.872;4.460;2023-03-01T15:08:02;5.60;;;2.75;;
74593;SDS011;63097;51.872;4.460;2023-03-01T15:10:30;7.95;;;3.17;;
74593;SDS011;63097;51.872;4.460;2023-03-01T15:13:10;10.10;;;3.17;;
74593;SDS011;63097;51.872;4.460;2023-03-01T15:15:46;2.95;;;2.40;;
74593;SDS011;63097;51.872;4.460;2023-03-01T15:18:19;4.78;;;2.67;;
74593;SDS011;63097;51.872;4.460;2023-03-01T15:20:47;2.80;;;2.50;;
74593;SDS011;63097;51.872;4.460;2023-03-01T15:23:26;4.72;;;2.40;;
74593;SDS011;63097;51.872;4.460;2023-03-01T15:25:54;4.05;;;2.60;;
74593;SDS011;63097;51.872;4.460;2023-03-01T15:28:20;3.78;;;2.55;;
74593;SDS011;63097;51.872;4.460;2023-03-01T15:30:45;3.63;;;2.38;;
74593;SDS011;63097;51.872;4.460;2023-03-01T15:35:50;5.93;;;2.65;;
74593;SDS011;63097;51.872;4.460;2023-03-01T15:41:24;3.40;;;2.70;;
74593;SDS011;63097;51.872;4.460;2023-03-01T15:43:51;4.85;;;3.10;;
74593;SDS011;63097;51.872;4.460;2023-03-01T15:52:00;4.65;;;2.65;;
74593;SDS011;63097;51.872;4.460;2023-03-01T15:54:25;7.70;;;3.50;;
74593;SDS011;63097;51.872;4.460;2023-03-01T15:56:52;4.15;;;2.97;;
74593;SDS011;63097;51.872;4.460;2023-03-01T15:59:17;5.38;;;2.95;;
74593;SDS011;63097;51.872;4.460;2023-03-01T16:01:43;6.40;;;2.90;;
74593;SDS011;63097;51.872;4.460;2023-03-01T16:04:13;3.35;;;2.63;;
74593;SDS011;63097;51.872;4.460;2023-03-01T16:06:39;4.72;;;3.08;;
74593;SDS011;63097;51.872;4.460;2023-03-01T16:09:05;5.28;;;2.53;;
74593;SDS011;63097;51.872;4.460;2023-03-01T16:11:30;7.53;;;3.38;;
74593;SDS011;63097;51.872;4.460;2023-03-01T16:13:55;5.13;;;2.78;;
74593;SDS011;63097;51.872;4.460;2023-03-01T16:16:21;3.92;;;2.70;;
74593;SDS011;63097;51.872;4.460;2023-03-01T16:18:46;5.57;;;2.78;;
74593;SDS011;63097;51.872;4.460;2023-03-01T16:21:16;8.50;;;2.75;;
74593;SDS011;63097;51.872;4.460;2023-03-01T16:23:48;5.95;;;3.00;;
74593;SDS011;63097;51.872;4.460;2023-03-01T16:26:14;8.27;;;2.60;;
74593;SDS011;63097;51.872;4.460;2023-03-01T16:28:40;3.60;;;2.33;;
74593;SDS011;63097;51.872;4.460;2023-03-01T16:31:06;3.47;;;2.40;;
74593;SDS011;63097;51.872;4.460;2023-03-01T16:33:32;5.03;;;2.67;;
74593;SDS011;63097;51.872;4.460;2023-03-01T16:35:58;3.78;;;2.80;;
74593;SDS011;63097;51.872;4.460;2023-03-01T16:38:23;11.48;;;2.72;;
74593;SDS011;63097;51.872;4.460;2023-03-01T16:40:49;3.35;;;2.42;;
74593;SDS011;63097;51.872;4.460;2023-03-01T16:43:16;4.35;;;2.45;;
74593;SDS011;63097;51.872;4.460;2023-03-01T16:45:41;3.33;;;2.55;;